ZTL Weather Bulletin
Prepared:8/29/2015 6:28 AM by: RW valid for 9 hours
FOR ATC PLANNING PURPOSES
Isolated to scattered showers and thunderstorms over GA/AL will move north to northwest at 10-15kts and weaken thru mid-morning, but redevelop over AL and southwest GA with early afternoon heating. Patchy MVFR/IFR conditions over GA/AL will improve to low VFR/VFR by 17-19z. Expect mostly VFR conditions over the rest of ZTL. Surface winds will be north to southeast at 5-12kts and variable and gusty near convection. Hazards outside of convection: LGT-MOD turbulence is expected between FL270-410 over all ZTL. Altimeters will remain above 29.92ins. Ceilings below 050 are expected in ZTL areas 3/4/5/6/7 through the period.

Restricted Area Convection: R2102...after 16z. R3002...thru period. R3004...None.
FTUS80 KATL 291403 AAA
KATL 291402Z 2914/3018 11005KT P6SM SCT015 SCT050 BKN150
      TEMPO 2915/2917 BKN020
     FM291700 13009KT P6SM -SHRA SCT025 BKN040 OVC150
     FM300100 12005KT P6SM VCSH SCT050 OVC090
     FM300900 09007KT P6SM -SHRA SCT005 OVC040
Remark: IFR POSSIBLE E/W til 15z. ISOLATED TS POSSIBLE NW/W/SW/S after 17z.
FTUS42 KGSP 291126
TAFCLT
TAF
KCLT 291126Z 2912/3012 36003KT P6SM SCT250
     FM291500 06006KT P6SM SCT050 SCT150 SCT250
     FM300300 14004KT P6SM BKN120=

Remark: None.
12-18 Hour Forecast Map
Weather Map
Convective Gate Forecast
Convective Gate Forecast


USA.gov is the U.S. government's official web portal to all federal, state and local government web resources and services.